FIN8B ENGM-EFHK
Flight info
| Callsign | FIN8B |
|---|---|
| Flight time | N/A |
| Altitude | 37000 |
| Route | ENGM/01R MASEV DCT OTKIL Y368 LAKUT |
| Aircraft | A320/M-SDE3FGHIRWY/LB1 |
Departure
| Time | N/A |
|---|---|
| Airport | Oslo-Gardermoen International Airport (ENGM) |
Arrival
| Time | 2026-04-26 12:54 |
|---|---|
| Airport | Helsinki Vantaa Airport (EFHK) |
| Time | Latitude | Longitude | Altitude | Speed | Heading |
|---|---|---|---|---|---|
| 2026-04-26 12:19 | 60.46335 | 19.64056 | 37033 ft | 463 kts | 82° |
| 2026-04-26 12:19 | 60.46419 | 19.70160 | 37044 ft | 463 kts | 82° |
| 2026-04-26 12:20 | 60.46581 | 19.83215 | 37033 ft | 464 kts | 82° |
| 2026-04-26 12:20 | 60.46722 | 19.96288 | 37025 ft | 464 kts | 82° |
| 2026-04-26 12:21 | 60.46843 | 20.09284 | 37017 ft | 464 kts | 82° |
| 2026-04-26 12:21 | 60.46972 | 20.22351 | 37010 ft | 464 kts | 82° |
| 2026-04-26 12:22 | 60.47089 | 20.35435 | 36796 ft | 464 kts | 82° |
| 2026-04-26 12:22 | 60.47143 | 20.41989 | 36314 ft | 464 kts | 82° |
| 2026-04-26 12:22 | 60.47190 | 20.48529 | 35845 ft | 464 kts | 82° |
| 2026-04-26 12:22 | 60.47234 | 20.55080 | 35390 ft | 465 kts | 81° |
| 2026-04-26 12:23 | 60.47274 | 20.61644 | 34942 ft | 465 kts | 81° |
| 2026-04-26 12:23 | 60.47311 | 20.68172 | 34537 ft | 462 kts | 81° |
| 2026-04-26 12:23 | 60.47342 | 20.74676 | 34105 ft | 460 kts | 81° |
| 2026-04-26 12:23 | 60.47365 | 20.81143 | 33611 ft | 457 kts | 80° |
| 2026-04-26 12:24 | 60.47391 | 20.87545 | 33094 ft | 453 kts | 79° |
| 2026-04-26 12:24 | 60.47413 | 20.93823 | 32597 ft | 449 kts | 79° |
| 2026-04-26 12:24 | 60.47431 | 21.00182 | 32094 ft | 445 kts | 79° |
| 2026-04-26 12:25 | 60.47450 | 21.12613 | 31131 ft | 437 kts | 78° |
| 2026-04-26 12:25 | 60.47456 | 21.18673 | 30668 ft | 433 kts | 77° |
| 2026-04-26 12:25 | 60.47464 | 21.24748 | 30203 ft | 429 kts | 77° |
| 2026-04-26 12:25 | 60.47468 | 21.30759 | 29684 ft | 425 kts | 76° |
| 2026-04-26 12:26 | 60.47474 | 21.36733 | 29118 ft | 422 kts | 76° |
| 2026-04-26 12:26 | 60.47471 | 21.42654 | 28635 ft | 419 kts | 77° |
| 2026-04-26 12:26 | 60.47449 | 21.48555 | 28083 ft | 417 kts | 78° |
| 2026-04-26 12:26 | 60.47410 | 21.54424 | 27542 ft | 415 kts | 78° |
| 2026-04-26 12:27 | 60.47359 | 21.60247 | 27036 ft | 412 kts | 79° |
| 2026-04-26 12:27 | 60.47307 | 21.66037 | 26511 ft | 409 kts | 79° |
| 2026-04-26 12:27 | 60.47257 | 21.71787 | 25992 ft | 407 kts | 79° |
| 2026-04-26 12:27 | 60.47211 | 21.77511 | 25481 ft | 404 kts | 79° |
| 2026-04-26 12:28 | 60.47167 | 21.83185 | 24981 ft | 402 kts | 79° |
| 2026-04-26 12:28 | 60.47121 | 21.88849 | 24495 ft | 400 kts | 79° |
| 2026-04-26 12:28 | 60.47072 | 21.94473 | 24000 ft | 398 kts | 80° |
| 2026-04-26 12:28 | 60.47018 | 22.00061 | 23526 ft | 396 kts | 80° |
| 2026-04-26 12:29 | 60.46962 | 22.05625 | 22955 ft | 394 kts | 80° |
| 2026-04-26 12:29 | 60.46902 | 22.11166 | 22382 ft | 392 kts | 81° |
| 2026-04-26 12:29 | 60.46765 | 22.21885 | 21333 ft | 366 kts | 83° |
| 2026-04-26 12:30 | 60.46696 | 22.26977 | 20801 ft | 359 kts | 83° |
| 2026-04-26 12:30 | 60.46653 | 22.30302 | 20449 ft | 355 kts | 83° |
| 2026-04-26 12:30 | 60.46599 | 22.34635 | 19993 ft | 350 kts | 83° |
| 2026-04-26 12:31 | 60.46475 | 22.44381 | 18955 ft | 342 kts | 83° |
| 2026-04-26 12:31 | 60.46415 | 22.49182 | 18452 ft | 338 kts | 83° |
| 2026-04-26 12:31 | 60.46354 | 22.53938 | 17929 ft | 338 kts | 83° |
| 2026-04-26 12:31 | 60.46290 | 22.58711 | 17358 ft | 339 kts | 83° |
| 2026-04-26 12:32 | 60.46223 | 22.63497 | 16798 ft | 340 kts | 84° |
| 2026-04-26 12:32 | 60.46152 | 22.68301 | 16246 ft | 341 kts | 84° |
| 2026-04-26 12:32 | 60.45996 | 22.77616 | 15345 ft | 324 kts | 83° |
| 2026-04-26 12:33 | 60.45921 | 22.82156 | 14994 ft | 320 kts | 83° |
| 2026-04-26 12:33 | 60.45846 | 22.86646 | 14695 ft | 317 kts | 84° |
| 2026-04-26 12:33 | 60.45775 | 22.91100 | 14358 ft | 315 kts | 84° |
| 2026-04-26 12:33 | 60.45703 | 22.95521 | 14026 ft | 313 kts | 84° |
| 2026-04-26 12:34 | 60.45631 | 22.99901 | 13684 ft | 311 kts | 84° |
| 2026-04-26 12:34 | 60.45554 | 23.04276 | 13316 ft | 310 kts | 84° |
| 2026-04-26 12:34 | 60.45473 | 23.08630 | 12946 ft | 308 kts | 85° |
| 2026-04-26 12:34 | 60.45392 | 23.12957 | 12583 ft | 307 kts | 85° |
| 2026-04-26 12:35 | 60.45311 | 23.17268 | 12225 ft | 306 kts | 85° |
| 2026-04-26 12:35 | 60.45229 | 23.21559 | 11863 ft | 304 kts | 85° |
| 2026-04-26 12:35 | 60.45148 | 23.25828 | 11510 ft | 303 kts | 85° |
| 2026-04-26 12:35 | 60.45066 | 23.30089 | 11152 ft | 302 kts | 85° |
| 2026-04-26 12:36 | 60.44984 | 23.34318 | 10811 ft | 300 kts | 85° |
| 2026-04-26 12:36 | 60.44901 | 23.38538 | 10470 ft | 299 kts | 86° |
| 2026-04-26 12:36 | 60.44818 | 23.42742 | 10138 ft | 298 kts | 86° |
| 2026-04-26 12:36 | 60.44729 | 23.46926 | 9872 ft | 296 kts | 86° |
| 2026-04-26 12:37 | 60.44638 | 23.51029 | 9851 ft | 290 kts | 86° |
| 2026-04-26 12:37 | 60.44548 | 23.55108 | 9845 ft | 289 kts | 86° |
| 2026-04-26 12:37 | 60.44459 | 23.59176 | 9846 ft | 290 kts | 86° |
| 2026-04-26 12:37 | 60.44371 | 23.63246 | 9834 ft | 290 kts | 86° |
| 2026-04-26 12:38 | 60.44280 | 23.67331 | 9832 ft | 290 kts | 86° |
| 2026-04-26 12:38 | 60.44188 | 23.71424 | 9832 ft | 290 kts | 86° |
| 2026-04-26 12:38 | 60.44092 | 23.75502 | 9832 ft | 290 kts | 86° |
| 2026-04-26 12:38 | 60.43993 | 23.79579 | 9832 ft | 290 kts | 86° |
| 2026-04-26 12:39 | 60.43839 | 23.83658 | 9826 ft | 294 kts | 95° |
| 2026-04-26 12:39 | 60.43090 | 23.87581 | 9821 ft | 304 kts | 113° |
| 2026-04-26 12:39 | 60.42088 | 23.91342 | 9818 ft | 304 kts | 114° |
| 2026-04-26 12:39 | 60.41072 | 23.95090 | 9819 ft | 303 kts | 114° |
| 2026-04-26 12:40 | 60.40049 | 23.98826 | 9822 ft | 304 kts | 114° |
| 2026-04-26 12:40 | 60.39025 | 24.02557 | 9818 ft | 304 kts | 114° |
| 2026-04-26 12:40 | 60.37998 | 24.06298 | 9818 ft | 304 kts | 114° |
| 2026-04-26 12:40 | 60.36975 | 24.10025 | 9800 ft | 304 kts | 114° |
| 2026-04-26 12:41 | 60.35949 | 24.13768 | 9805 ft | 303 kts | 114° |
| 2026-04-26 12:41 | 60.34928 | 24.17491 | 9805 ft | 304 kts | 114° |
| 2026-04-26 12:41 | 60.33903 | 24.21218 | 9752 ft | 302 kts | 114° |
| 2026-04-26 12:41 | 60.32896 | 24.24873 | 9321 ft | 301 kts | 114° |
| 2026-04-26 12:42 | 60.31878 | 24.28559 | 8934 ft | 299 kts | 114° |
| 2026-04-26 12:42 | 60.30869 | 24.32214 | 8524 ft | 297 kts | 114° |
| 2026-04-26 12:42 | 60.29866 | 24.35840 | 8116 ft | 296 kts | 114° |
| 2026-04-26 12:42 | 60.28862 | 24.39460 | 7701 ft | 295 kts | 114° |
| 2026-04-26 12:43 | 60.27863 | 24.43059 | 7291 ft | 293 kts | 114° |
| 2026-04-26 12:43 | 60.26869 | 24.46635 | 6888 ft | 292 kts | 113° |
| 2026-04-26 12:43 | 60.25879 | 24.50196 | 6461 ft | 291 kts | 113° |
| 2026-04-26 12:43 | 60.24892 | 24.53746 | 6035 ft | 290 kts | 113° |
| 2026-04-26 12:44 | 60.23907 | 24.57275 | 5599 ft | 289 kts | 114° |
| 2026-04-26 12:44 | 60.22923 | 24.60789 | 5199 ft | 287 kts | 114° |
| 2026-04-26 12:44 | 60.21945 | 24.64274 | 4803 ft | 285 kts | 113° |
| 2026-04-26 12:44 | 60.20977 | 24.67723 | 4383 ft | 283 kts | 114° |
| 2026-04-26 12:45 | 60.20008 | 24.71173 | 3978 ft | 281 kts | 114° |
| 2026-04-26 12:45 | 60.19047 | 24.74583 | 3561 ft | 279 kts | 114° |
| 2026-04-26 12:45 | 60.18094 | 24.77969 | 3145 ft | 278 kts | 114° |
| 2026-04-26 12:45 | 60.17144 | 24.81347 | 2703 ft | 278 kts | 114° |
| 2026-04-26 12:46 | 60.16191 | 24.84717 | 2350 ft | 275 kts | 114° |
| 2026-04-26 12:46 | 60.15257 | 24.88009 | 2307 ft | 264 kts | 114° |
| 2026-04-26 12:46 | 60.14373 | 24.91103 | 2307 ft | 249 kts | 113° |
| 2026-04-26 12:46 | 60.13522 | 24.94096 | 2311 ft | 244 kts | 111° |
| 2026-04-26 12:47 | 60.12955 | 24.97096 | 2313 ft | 218 kts | 92° |
| 2026-04-26 12:47 | 60.12846 | 24.99959 | 2315 ft | 195 kts | 76° |
| 2026-04-26 12:47 | 60.13082 | 25.02563 | 2318 ft | 185 kts | 62° |
| 2026-04-26 12:47 | 60.13587 | 25.04870 | 2307 ft | 178 kts | 52° |
| 2026-04-26 12:48 | 60.14138 | 25.07039 | 2324 ft | 166 kts | 53° |
| 2026-04-26 12:48 | 60.14626 | 25.09009 | 2300 ft | 149 kts | 52° |
| 2026-04-26 12:48 | 60.15123 | 25.10648 | 2322 ft | 128 kts | 36° |
| 2026-04-26 12:48 | 60.15778 | 25.11689 | 2312 ft | 116 kts | 19° |
| 2026-04-26 12:49 | 60.16529 | 25.12213 | 2314 ft | 114 kts | 4° |
| 2026-04-26 12:49 | 60.17326 | 25.12225 | 2314 ft | 116 kts | 350° |
| 2026-04-26 12:49 | 60.18100 | 25.11709 | 2311 ft | 119 kts | 335° |
| 2026-04-26 12:49 | 60.18832 | 25.10952 | 2312 ft | 118 kts | 336° |
| 2026-04-26 12:50 | 60.19565 | 25.10204 | 2311 ft | 118 kts | 336° |
| 2026-04-26 12:50 | 60.20300 | 25.09453 | 2309 ft | 119 kts | 336° |
| 2026-04-26 12:50 | 60.21035 | 25.08704 | 2306 ft | 118 kts | 336° |
| 2026-04-26 12:50 | 60.21769 | 25.07959 | 2306 ft | 118 kts | 336° |
| 2026-04-26 12:51 | 60.22504 | 25.07214 | 2273 ft | 119 kts | 336° |
| 2026-04-26 12:51 | 60.23239 | 25.06465 | 2220 ft | 118 kts | 336° |
| 2026-04-26 12:51 | 60.23972 | 25.05718 | 2168 ft | 118 kts | 336° |
| 2026-04-26 12:51 | 60.24703 | 25.04969 | 2102 ft | 119 kts | 336° |
| 2026-04-26 12:52 | 60.25441 | 25.04238 | 1794 ft | 118 kts | 337° |
| 2026-04-26 12:52 | 60.26176 | 25.03520 | 1494 ft | 116 kts | 336° |
| 2026-04-26 12:52 | 60.26876 | 25.02794 | 1192 ft | 110 kts | 336° |
| 2026-04-26 12:52 | 60.27540 | 25.02121 | 933 ft | 104 kts | 334° |
| 2026-04-26 12:53 | 60.28195 | 25.01462 | 748 ft | 106 kts | 332° |
| 2026-04-26 12:53 | 60.28841 | 25.00787 | 658 ft | 105 kts | 332° |
| 2026-04-26 12:53 | 60.29493 | 25.00091 | 510 ft | 109 kts | 332° |
| 2026-04-26 12:53 | 60.30147 | 24.99400 | 348 ft | 106 kts | 330° |
| 2026-04-26 12:54 | 60.30787 | 24.98749 | 212 ft | 104 kts | 330° |
| 2026-04-26 12:54 | 60.31377 | 24.98152 | 158 ft | 81 kts | 330° |
| 2026-04-26 12:54 | 60.31727 | 24.97780 | 152 ft | 32 kts | 332° |
| 2026-04-26 12:54 | 60.31867 | 24.97632 | 152 ft | 21 kts | 331° |
| 2026-04-26 12:55 | 60.31998 | 24.97498 | 153 ft | 23 kts | 332° |
| 2026-04-26 12:55 | 60.32144 | 24.97354 | 155 ft | 24 kts | 335° |
| 2026-04-26 12:55 | 60.32288 | 24.97208 | 158 ft | 21 kts | 332° |
| 2026-04-26 12:55 | 60.32384 | 24.97075 | 163 ft | 13 kts | 302° |
| 2026-04-26 12:56 | 60.32361 | 24.96912 | 165 ft | 14 kts | 228° |
| 2026-04-26 12:56 | 60.32301 | 24.96781 | 166 ft | 12 kts | 227° |
| 2026-04-26 12:56 | 60.32238 | 24.96747 | 166 ft | 10 kts | 159° |
| 2026-04-26 12:56 | 60.32170 | 24.96823 | 166 ft | 12 kts | 150° |
| 2026-04-26 12:57 | 60.32104 | 24.96862 | 166 ft | 7 kts | 202° |
| 2026-04-26 12:57 | 60.32070 | 24.96798 | 167 ft | 6 kts | 227° |
| 2026-04-26 12:57 | 60.32042 | 24.96739 | 167 ft | 5 kts | 222° |
| 2026-04-26 12:58 | 60.31981 | 24.96737 | 167 ft | 1 kts | 174° |
| 2026-04-26 12:58 | 60.31966 | 24.96740 | 167 ft | 0 kts | 174° |
| 2026-04-26 12:58 | 60.31965 | 24.96740 | 167 ft | 0 kts | 174° |